Accueil
METAR-TAF:

METAR-TAF

Aéroports :

Aéroport international Mehrabad

Téhéran, Iran

latitude: 35-41N, longitude: 051-21E, altitude: 1204 m

Observation

Le bulletin a été fait il y a 16 minutes, à 19:00 UTC
Vent 4 kt de ouest/nord-ouest
Température 16°C
Humidité 48%
Pression 1020 hPa
Visibilité 10 km ou plus
pas de nuages en-dessous de 1500 mètres et pas de cumulonimbus.

METAR: OIII 221900Z 29004KT CAVOK 16/05 Q1020 A3013

Heure: 22:46 (19:16 UTC)

Prévision

Le bulletin a été fait il y a 1 heure et 46 minutes, à 17:30 UTC
Prévision valable du 22 à 18 UTC au 23 à 24 UTC
Vent 8 kt de nord/nord-ouest
Visibilité: 7000 m
Temporairement
du 23 à 09 UTC au 23 à 16 UTC
Vent 14 kt de ouest
Quelques nuages à une hauteur de 3500 ft, Cumulonimbus.
Nuages épars à une hauteur de 4000 ft
Nuages fragmentés à une hauteur de 9000 ft

TAF: OIII 221730Z 2218/2324 34004MPS 7000 NSC TEMPO 2309/2316 26007MPS FEW035CB SCT040 BKN090

Observations et prévisions météorologiques de plus de 4000 aéroports (messages METAR et TAF).

Les stations disponibles sont représentées par des disques jaunes et rouges sur la carte.

Passer la souris dessus pour voir le nom de la station.

Cliquer dessus pour voir les observations et prévisions météorologiques.

Pour changer de carte: cliquez sur les boutons verts avec une croix noire pour zoomer, sur le bouton vert avec un tiret pour effectuer un zoom arrière, ou sur les flèches vertes pour les cartes adjacentes.


METAR-TAF: